Time;durP1;ratioP1;P1;durP2;ratioP2;P2;SDS_P1;SDS_P2;PMS_P1;PMS_P2;Temp;Humidity;BMP_temperature;BMP_pressure;BME280_temperature;BME280_humidity;BME280_pressure;Samples;Min_cycle;Max_cycle;Signal;HPM_P1;HPM_P2
2022/10/30 00:00:23;;;;;;;19.92;8.38;;;13.30;99.90;;;;;;4957635;28;20077;-66
2022/10/30 00:02:49;;;;;;;22.63;9.18;;;13.20;99.90;;;;;;4957263;28;20026;-64
2022/10/30 00:05:16;;;;;;;19.08;8.02;;;13.10;99.90;;;;;;4974622;28;20025;-64
2022/10/30 00:07:41;;;;;;;16.55;8.27;;;13.20;99.90;;;;;;4957547;28;20058;-64
2022/10/30 00:10:07;;;;;;;16.00;8.63;;;13.20;99.90;;;;;;4958434;28;20049;-66
2022/10/30 00:12:33;;;;;;;16.60;7.45;;;13.10;99.90;;;;;;4957350;28;20031;-66
2022/10/30 00:14:58;;;;;;;19.92;8.80;;;13.00;99.90;;;;;;4974371;28;20034;-66
2022/10/30 00:17:24;;;;;;;26.70;9.60;;;13.00;99.90;;;;;;4957455;28;20026;-66
2022/10/30 00:19:49;;;;;;;17.27;8.05;;;13.00;99.90;;;;;;4957362;28;20053;-66
2022/10/30 00:22:15;;;;;;;16.35;8.45;;;13.00;99.90;;;;;;4975889;28;20031;-66
2022/10/30 00:24:41;;;;;;;18.05;7.93;;;13.00;99.90;;;;;;4978368;28;20042;-64
2022/10/30 00:27:06;;;;;;;19.92;8.45;;;13.00;99.90;;;;;;4961515;28;20142;-64
2022/10/30 00:29:32;;;;;;;19.15;8.07;;;12.80;99.90;;;;;;4961238;28;20149;-64
2022/10/30 00:31:57;;;;;;;20.95;8.32;;;13.00;99.90;;;;;;4961308;28;20019;-66
2022/10/30 00:34:23;;;;;;;15.50;7.65;;;13.10;99.90;;;;;;4961277;28;20023;-64
2022/10/30 00:36:48;;;;;;;15.55;8.07;;;13.20;99.90;;;;;;4978606;28;20031;-64
2022/10/30 00:39:14;;;;;;;13.88;7.53;;;13.10;99.90;;;;;;4978255;28;20110;-64
2022/10/30 00:41:40;;;;;;;15.00;7.55;;;13.20;99.90;;;;;;4978173;28;20031;-64
2022/10/30 00:44:36;;;;;;;15.25;7.07;;;13.30;99.90;;;;;;4978268;28;20057;-64
2022/10/30 00:47:06;;;;;;;11.75;6.55;;;13.30;99.90;;;;;;4961191;28;20038;-64
2022/10/30 00:49:35;;;;;;;15.02;7.45;;;13.20;99.90;;;;;;4961144;28;20039;-64
2022/10/30 00:52:04;;;;;;;15.75;7.03;;;13.10;99.90;;;;;;4978497;28;20045;-66
2022/10/30 00:54:32;;;;;;;16.17;6.82;;;13.00;99.90;;;;;;4961277;28;20045;-66
2022/10/30 00:57:00;;;;;;;18.15;7.00;;;13.10;99.90;;;;;;4960795;28;20130;-66
2022/10/30 00:59:29;;;;;;;14.13;7.00;;;13.00;99.90;;;;;;4960694;28;20015;-66
2022/10/30 01:01:55;;;;;;;13.45;6.18;;;12.80;99.90;;;;;;4960930;28;20023;-66
2022/10/30 01:04:21;;;;;;;12.57;6.35;;;12.90;99.90;;;;;;4960555;28;20035;-64
2022/10/30 01:06:50;;;;;;;12.95;6.53;;;12.70;99.90;;;;;;4960385;28;20022;-64
2022/10/30 01:09:20;;;;;;;21.23;6.63;;;12.60;99.90;;;;;;4960375;28;20027;-64
2022/10/30 01:11:45;;;;;;;11.65;7.00;;;12.70;99.90;;;;;;4960267;28;20027;-64
2022/10/30 01:14:13;;;;;;;13.70;6.22;;;12.60;99.90;;;;;;4977685;28;20041;-66
2022/10/30 01:17:10;;;;;;;15.27;7.13;;;12.60;99.90;;;;;;4960850;28;20019;-66
2022/10/30 01:19:51;;;;;;;16.70;6.82;;;12.60;99.90;;;;;;4978089;28;20057;-66
2022/10/30 01:22:48;;;;;;;15.63;6.85;;;12.60;99.90;;;;;;4977729;28;20098;-66
2022/10/30 01:25:34;;;;;;;11.88;6.80;;;12.70;99.90;;;;;;4960051;28;20082;-66
2022/10/30 01:28:05;;;;;;;17.60;7.03;;;12.70;99.90;;;;;;4977725;28;20098;-66
2022/10/30 01:30:52;;;;;;;18.33;6.82;;;12.70;99.90;;;;;;4960960;28;20027;-66
2022/10/30 01:33:49;;;;;;;11.57;6.65;;;12.70;99.90;;;;;;4961244;28;20035;-66
2022/10/30 01:36:23;;;;;;;14.82;6.70;;;12.70;99.90;;;;;;4925183;28;20051;-66
2022/10/30 01:39:00;;;;;;;18.35;7.25;;;12.70;99.90;;;;;;4977694;28;20027;-66
2022/10/30 01:41:25;;;;;;;13.88;6.30;;;12.60;99.90;;;;;;4959863;28;20034;-64
2022/10/30 01:43:57;;;;;;;14.80;7.00;;;12.30;99.90;;;;;;4959702;28;20081;-64
2022/10/30 01:46:30;;;;;;;18.65;7.28;;;12.30;99.90;;;;;;4959709;28;20031;-66
2022/10/30 01:49:14;;;;;;;12.90;6.53;;;12.20;99.90;;;;;;4959679;28;20031;-64
2022/10/30 01:52:12;;;;;;;11.85;6.57;;;12.30;99.90;;;;;;4976957;28;20540;-64
2022/10/30 01:54:46;;;;;;;10.68;5.70;;;12.30;99.90;;;;;;4959631;28;20030;-64
2022/10/30 01:57:19;;;;;;;10.88;6.60;;;12.30;99.90;;;;;;4959820;28;20033;-66
2022/10/30 01:59:49;;;;;;;15.68;6.57;;;12.30;99.90;;;;;;4959521;28;20502;-64
2022/10/30 02:02:15;;;;;;;10.13;5.78;;;12.30;99.90;;;;;;4976978;28;20027;-66
2022/10/30 02:04:41;;;;;;;16.40;6.00;;;12.30;99.90;;;;;;4976599;28;20030;-66
2022/10/30 02:07:06;;;;;;;15.63;6.65;;;12.30;99.90;;;;;;4959567;28;20118;-66
2022/10/30 02:09:33;;;;;;;16.15;6.57;;;12.30;99.90;;;;;;4976658;28;20113;-64
2022/10/30 02:12:00;;;;;;;19.60;7.28;;;12.30;99.90;;;;;;4959215;28;20027;-64
2022/10/30 02:14:31;;;;;;;13.85;6.55;;;12.20;99.90;;;;;;4976497;28;20025;-64
2022/10/30 02:16:59;;;;;;;11.70;6.00;;;12.20;99.90;;;;;;4976927;28;20065;-64
2022/10/30 02:19:24;;;;;;;15.75;6.53;;;12.20;99.90;;;;;;4959190;28;20080;-64
2022/10/30 02:21:51;;;;;;;14.85;6.25;;;12.20;99.90;;;;;;4976372;28;20031;-64
2022/10/30 02:24:16;;;;;;;16.33;6.80;;;12.10;99.90;;;;;;4958896;28;20482;-64
2022/10/30 02:26:42;;;;;;;20.25;7.13;;;12.10;99.90;;;;;;4976329;28;20070;-66
2022/10/30 02:29:07;;;;;;;11.82;6.38;;;12.10;99.90;;;;;;4976860;28;20025;-66
2022/10/30 02:31:33;;;;;;;16.42;7.18;;;12.00;99.90;;;;;;4976330;28;20027;-66
2022/10/30 02:33:59;;;;;;;15.60;5.88;;;11.90;99.90;;;;;;4960134;28;20022;-66
2022/10/30 02:36:24;;;;;;;13.00;6.00;;;11.90;99.90;;;;;;4958864;28;20035;-66
2022/10/30 02:39:31;;;;;;;12.00;6.15;;;11.90;99.90;;;;;;4959160;28;20026;-64
2022/10/30 02:41:57;;;;;;;19.42;7.22;;;11.80;99.90;;;;;;4958796;28;20085;-66
2022/10/30 02:44:22;;;;;;;10.02;5.70;;;11.80;99.90;;;;;;4958630;28;20063;-66
2022/10/30 02:46:48;;;;;;;12.32;5.82;;;11.80;99.90;;;;;;4959017;28;20083;-66
2022/10/30 02:49:13;;;;;;;17.33;6.93;;;11.80;99.90;;;;;;4976069;28;20058;-66
2022/10/30 02:51:39;;;;;;;24.50;8.25;;;11.80;99.90;;;;;;4959587;28;20023;-66
2022/10/30 02:54:04;;;;;;;17.17;7.30;;;11.70;99.90;;;;;;4958414;28;20023;-64
2022/10/30 02:56:30;;;;;;;18.35;6.90;;;11.60;99.90;;;;;;4958283;28;20089;-64
2022/10/30 02:58:55;;;;;;;14.10;6.72;;;11.70;99.90;;;;;;4958816;28;20034;-66
2022/10/30 03:01:21;;;;;;;14.57;6.35;;;11.70;99.90;;;;;;4958475;28;20034;-66
2022/10/30 03:03:46;;;;;;;16.17;6.88;;;11.70;99.90;;;;;;4958584;28;20034;-66
2022/10/30 03:06:14;;;;;;;12.93;6.70;;;11.70;99.90;;;;;;4975491;28;20019;-66
2022/10/30 03:08:41;;;;;;;13.07;6.72;;;11.70;99.90;;;;;;4959067;28;20348;-64
2022/10/30 03:11:18;;;;;;;17.60;6.70;;;11.70;99.90;;;;;;4975240;28;20019;-66
2022/10/30 03:13:44;;;;;;;17.63;7.28;;;11.70;99.90;;;;;;4975743;28;20027;-66
2022/10/30 03:16:14;;;;;;;17.38;6.35;;;11.80;99.90;;;;;;4957815;28;20023;-66
2022/10/30 03:18:40;;;;;;;14.02;5.72;;;11.70;99.90;;;;;;4958329;28;20474;-66
2022/10/30 03:21:09;;;;;;;10.07;5.60;;;11.60;99.90;;;;;;4958005;28;20096;-66
2022/10/30 03:23:34;;;;;;;19.60;6.55;;;11.60;99.90;;;;;;4958445;28;20030;-65
2022/10/30 03:26:00;;;;;;;12.73;6.25;;;11.60;99.90;;;;;;4975137;28;20023;-64
2022/10/30 03:28:28;;;;;;;9.10;6.32;;;11.60;99.90;;;;;;4975217;28;20470;-66
2022/10/30 03:31:05;;;;;;;13.43;6.82;;;11.70;99.90;;;;;;4958522;28;20030;-66
2022/10/30 03:33:32;;;;;;;16.40;7.20;;;11.90;99.90;;;;;;4957838;28;20034;-66
2022/10/30 03:35:58;;;;;;;16.17;6.45;;;11.90;99.90;;;;;;4957572;28;20089;-64
2022/10/30 03:38:25;;;;;;;16.70;5.97;;;11.90;99.90;;;;;;4975008;28;20027;-64
2022/10/30 03:40:50;;;;;;;11.18;5.50;;;11.80;99.90;;;;;;4975214;28;20027;-66
2022/10/30 03:43:16;;;;;;;7.07;5.35;;;11.80;99.90;;;;;;4974783;28;20034;-66
2022/10/30 03:45:50;;;;;;;9.70;4.82;;;11.70;99.90;;;;;;4958309;28;20039;-66
2022/10/30 03:48:17;;;;;;;16.35;5.75;;;11.60;99.90;;;;;;4974719;28;20095;-66
2022/10/30 03:50:43;;;;;;;24.10;6.90;;;11.60;99.90;;;;;;4957513;28;20471;-66
2022/10/30 03:53:09;;;;;;;14.88;6.20;;;11.70;99.90;;;;;;4957526;28;20074;-66
2022/10/30 03:55:34;;;;;;;15.20;7.32;;;11.80;99.90;;;;;;4957299;28;20117;-64
2022/10/30 03:58:00;;;;;;;19.33;6.72;;;11.90;99.90;;;;;;4956579;28;20023;-64
2022/10/30 04:00:25;;;;;;;13.85;7.18;;;12.00;99.90;;;;;;4957428;28;20034;-64
2022/10/30 04:02:52;;;;;;;17.48;7.30;;;12.00;99.90;;;;;;4974880;28;20034;-64
2022/10/30 04:05:19;;;;;;;15.52;6.28;;;12.00;99.90;;;;;;4974586;28;20023;-66
2022/10/30 04:07:45;;;;;;;14.25;6.15;;;12.00;99.90;;;;;;4957381;28;20023;-64
2022/10/30 04:10:12;;;;;;;10.20;5.32;;;12.00;99.90;;;;;;4957266;28;20019;-64
2022/10/30 04:12:37;;;;;;;14.85;7.35;;;12.00;99.90;;;;;;4974529;28;20109;-64
2022/10/30 04:15:05;;;;;;;10.43;5.32;;;11.90;99.90;;;;;;4957097;28;20069;-66
2022/10/30 04:17:30;;;;;;;21.40;5.68;;;11.90;99.90;;;;;;4957147;28;20038;-66
2022/10/30 04:19:56;;;;;;;13.18;6.45;;;11.90;99.90;;;;;;4974679;28;20027;-64
2022/10/30 04:22:22;;;;;;;14.45;6.20;;;11.90;99.90;;;;;;4957046;28;20034;-64
2022/10/30 04:24:50;;;;;;;18.08;7.32;;;11.80;99.90;;;;;;4957076;28;20026;-64
2022/10/30 04:27:16;;;;;;;16.05;6.32;;;11.70;99.90;;;;;;4957057;28;20109;-66
2022/10/30 04:29:41;;;;;;;13.52;6.70;;;11.60;99.90;;;;;;4957061;28;20078;-66
2022/10/30 04:32:08;;;;;;;16.88;7.10;;;11.60;99.90;;;;;;4974630;28;20046;-64
2022/10/30 04:34:34;;;;;;;19.25;7.00;;;11.60;99.90;;;;;;4957042;28;20099;-66
2022/10/30 04:37:00;;;;;;;12.15;7.72;;;11.60;99.90;;;;;;4974353;28;20019;-66
2022/10/30 04:39:25;;;;;;;28.00;8.55;;;11.60;99.90;;;;;;4957421;28;20066;-66
2022/10/30 04:41:51;;;;;;;27.05;8.30;;;11.70;99.90;;;;;;4957229;28;20023;-66
2022/10/30 04:44:16;;;;;;;27.50;8.30;;;11.70;99.90;;;;;;4956918;28;20023;-66
2022/10/30 04:46:42;;;;;;;21.88;8.68;;;11.60;99.90;;;;;;4957011;28;20027;-64
2022/10/30 04:49:08;;;;;;;16.58;7.35;;;11.60;99.90;;;;;;4956937;28;20027;-64
2022/10/30 04:51:33;;;;;;;12.32;7.30;;;11.60;99.90;;;;;;4957083;28;20039;-64
2022/10/30 04:53:59;;;;;;;17.67;7.50;;;11.60;99.90;;;;;;4956981;28;20537;-64
2022/10/30 04:56:24;;;;;;;14.50;6.72;;;11.60;99.90;;;;;;4957055;28;20031;-64
2022/10/30 04:58:51;;;;;;;19.23;7.22;;;11.70;99.90;;;;;;4957525;28;20027;-64
2022/10/30 05:01:16;;;;;;;17.48;7.28;;;11.60;99.90;;;;;;4974678;28;20035;-64
2022/10/30 05:03:42;;;;;;;15.10;7.40;;;11.60;99.90;;;;;;4956947;28;20126;-64
2022/10/30 05:06:26;;;;;;;16.25;7.95;;;11.70;99.90;;;;;;4957048;28;20022;-64
2022/10/30 05:08:51;;;;;;;19.70;7.65;;;11.70;99.90;;;;;;4958997;28;20065;-64
2022/10/30 05:11:17;;;;;;;13.70;6.43;;;11.70;99.90;;;;;;4960878;28;20023;-64
2022/10/30 05:13:43;;;;;;;15.55;7.18;;;11.70;99.90;;;;;;4960265;28;20034;-64
2022/10/30 05:16:09;;;;;;;17.33;8.07;;;11.70;99.90;;;;;;4960243;28;20034;-64
2022/10/30 05:18:34;;;;;;;19.65;7.40;;;11.70;99.90;;;;;;4960154;28;20027;-64
2022/10/30 05:21:00;;;;;;;19.02;6.82;;;11.70;99.90;;;;;;4960272;28;20030;-64
2022/10/30 05:23:25;;;;;;;15.90;7.28;;;11.70;99.90;;;;;;4960062;28;20038;-64
2022/10/30 05:25:51;;;;;;;18.27;8.15;;;11.70;99.90;;;;;;4960069;28;20031;-64
2022/10/30 05:28:16;;;;;;;18.02;7.68;;;11.60;99.90;;;;;;4977676;28;20347;-64
2022/10/30 05:30:42;;;;;;;18.33;7.57;;;11.60;99.90;;;;;;4960097;28;20035;-66
2022/10/30 05:33:10;;;;;;;18.95;7.03;;;11.60;99.90;;;;;;4960089;28;20077;-66
2022/10/30 05:35:37;;;;;;;13.70;6.82;;;11.60;99.90;;;;;;4960073;28;20058;-66
2022/10/30 05:38:06;;;;;;;13.18;7.43;;;11.70;99.90;;;;;;4960162;28;20026;-66
2022/10/30 05:40:33;;;;;;;15.82;7.38;;;11.80;99.90;;;;;;4960684;28;20035;-66
2022/10/30 05:42:59;;;;;;;14.00;6.18;;;11.80;99.90;;;;;;4960024;28;20027;-66
2022/10/30 05:45:24;;;;;;;12.77;6.63;;;11.90;99.90;;;;;;4959601;28;20093;-66
2022/10/30 05:47:58;;;;;;;18.23;7.00;;;11.90;99.90;;;;;;4960521;28;20066;-66
2022/10/30 05:50:25;;;;;;;11.85;6.78;;;11.90;99.90;;;;;;4959811;28;20390;-66
2022/10/30 05:53:02;;;;;;;12.25;6.78;;;11.90;99.90;;;;;;4960099;28;20023;-66
2022/10/30 05:55:27;;;;;;;15.13;6.75;;;11.70;99.90;;;;;;4959810;28;20035;-66
2022/10/30 05:57:58;;;;;;;11.82;6.68;;;11.60;99.90;;;;;;4976938;28;20052;-66
2022/10/30 06:00:24;;;;;;;14.23;6.55;;;11.60;99.90;;;;;;4959645;28;20549;-66
2022/10/30 06:02:50;;;;;;;19.05;6.93;;;11.60;99.90;;;;;;4959356;28;20034;-66
2022/10/30 06:05:16;;;;;;;13.48;6.90;;;11.60;99.90;;;;;;4959375;28;20019;-66
2022/10/30 06:07:41;;;;;;;14.40;6.78;;;11.60;99.90;;;;;;4960175;28;20057;-66
2022/10/30 06:10:07;;;;;;;14.73;6.28;;;11.60;99.90;;;;;;4959693;28;20109;-66
2022/10/30 06:12:33;;;;;;;12.80;6.80;;;11.70;99.90;;;;;;4959251;28;20042;-66
2022/10/30 06:14:58;;;;;;;14.77;6.50;;;11.70;99.90;;;;;;4959608;28;20035;-66
2022/10/30 06:17:24;;;;;;;15.13;6.10;;;11.80;99.90;;;;;;4959155;28;20031;-66
2022/10/30 06:19:49;;;;;;;15.90;8.43;;;11.80;99.90;;;;;;4958579;28;20031;-66
2022/10/30 06:22:14;;;;;;;14.15;7.18;;;11.90;99.90;;;;;;4959766;28;20023;-66
2022/10/30 06:24:40;;;;;;;16.33;7.32;;;12.00;99.90;;;;;;4959042;28;20430;-66
2022/10/30 06:27:05;;;;;;;15.40;7.15;;;12.00;99.90;;;;;;4958985;28;20026;-66
2022/10/30 06:29:31;;;;;;;13.80;7.20;;;12.00;99.90;;;;;;4976641;28;20061;-66
2022/10/30 06:31:57;;;;;;;21.98;8.75;;;12.00;99.90;;;;;;4976217;28;20101;-66
2022/10/30 06:34:22;;;;;;;19.75;7.40;;;11.80;99.90;;;;;;4958911;28;20085;-66
2022/10/30 06:36:48;;;;;;;15.95;6.65;;;11.60;99.90;;;;;;4958839;28;20106;-66
2022/10/30 06:39:13;;;;;;;15.15;6.85;;;11.50;99.90;;;;;;4958740;28;20027;-66
2022/10/30 06:41:39;;;;;;;12.88;6.72;;;11.50;99.90;;;;;;4976099;28;20108;-66
2022/10/30 06:44:04;;;;;;;17.65;7.43;;;11.50;99.90;;;;;;4976212;28;20043;-66
2022/10/30 06:46:30;;;;;;;12.60;7.00;;;11.50;99.90;;;;;;4958566;28;20030;-66
2022/10/30 06:48:55;;;;;;;15.77;8.52;;;11.50;99.90;;;;;;4958539;28;20027;-66
2022/10/30 06:51:21;;;;;;;12.27;6.75;;;11.50;99.90;;;;;;4975866;28;20038;-66
2022/10/30 06:53:47;;;;;;;12.25;5.32;;;11.50;99.90;;;;;;4958608;28;20054;-66
2022/10/30 06:56:12;;;;;;;13.90;7.00;;;11.50;99.90;;;;;;4958328;28;20034;-66
2022/10/30 06:58:38;;;;;;;12.75;6.57;;;11.60;99.90;;;;;;4958448;28;20034;-66
2022/10/30 07:01:07;;;;;;;15.90;6.05;;;11.60;99.90;;;;;;4976016;28;20038;-66
2022/10/30 07:03:33;;;;;;;16.48;7.60;;;11.70;99.90;;;;;;4975810;28;20113;-66
2022/10/30 07:05:59;;;;;;;12.88;6.68;;;11.80;99.90;;;;;;4975533;28;20062;-66
2022/10/30 07:08:25;;;;;;;11.13;5.90;;;11.90;99.90;;;;;;4975801;28;20047;-66
2022/10/30 07:10:50;;;;;;;14.57;6.88;;;11.90;99.90;;;;;;4958487;28;20026;-66
2022/10/30 07:13:16;;;;;;;12.90;6.65;;;11.90;99.90;;;;;;4958462;28;20042;-66
2022/10/30 07:15:42;;;;;;;8.50;5.97;;;12.00;99.90;;;;;;4958174;28;20031;-66
2022/10/30 07:18:09;;;;;;;10.20;5.97;;;12.10;99.90;;;;;;4958332;28;20022;-66
2022/10/30 07:20:35;;;;;;;8.50;5.18;;;12.20;99.90;;;;;;4958011;28;20030;-66
2022/10/30 07:23:01;;;;;;;10.90;5.38;;;12.20;99.90;;;;;;4958282;28;20023;-66
2022/10/30 07:25:27;;;;;;;9.63;5.50;;;12.10;99.90;;;;;;4957845;28;20027;-66
2022/10/30 07:27:53;;;;;;;10.90;6.50;;;12.00;99.90;;;;;;4958201;28;20098;-66
2022/10/30 07:30:21;;;;;;;10.40;6.03;;;12.00;99.90;;;;;;4975196;28;20475;-66
2022/10/30 07:33:16;;;;;;;8.05;5.57;;;12.00;99.90;;;;;;4957991;28;20035;-66
2022/10/30 07:35:42;;;;;;;11.38;6.20;;;12.00;99.90;;;;;;4958369;28;20026;-66
2022/10/30 07:38:10;;;;;;;13.43;6.45;;;12.00;99.90;;;;;;4958082;28;20359;-66
2022/10/30 07:40:36;;;;;;;11.35;6.35;;;12.00;99.90;;;;;;4975415;28;20030;-66
2022/10/30 07:43:03;;;;;;;14.80;6.97;;;11.90;99.90;;;;;;4957626;28;20030;-66
2022/10/30 07:45:29;;;;;;;11.10;6.53;;;11.90;99.90;;;;;;4957576;28;20026;-66
2022/10/30 07:47:54;;;;;;;14.13;6.60;;;11.80;99.90;;;;;;4957899;28;20470;-66
2022/10/30 07:50:21;;;;;;;16.30;7.07;;;11.80;99.90;;;;;;4957540;28;20045;-66
2022/10/30 07:52:46;;;;;;;16.15;6.88;;;11.90;99.90;;;;;;4957634;28;20107;-67
2022/10/30 07:55:12;;;;;;;13.73;6.45;;;12.00;99.90;;;;;;4975283;28;20105;-68
2022/10/30 07:57:41;;;;;;;8.63;5.72;;;12.20;99.90;;;;;;4957761;28;20121;-68
2022/10/30 08:00:09;;;;;;;11.90;5.93;;;12.20;99.90;;;;;;4975005;28;20037;-68
2022/10/30 08:02:35;;;;;;;11.80;6.22;;;12.20;99.90;;;;;;4958428;28;20471;-68
2022/10/30 08:05:01;;;;;;;13.27;7.32;;;12.30;99.90;;;;;;4958010;28;20077;-68
2022/10/30 08:07:31;;;;;;;9.80;7.07;;;12.30;99.90;;;;;;4958002;28;20023;-68
2022/10/30 08:09:56;;;;;;;10.55;6.47;;;12.30;99.90;;;;;;4975517;28;20382;-68
2022/10/30 08:12:22;;;;;;;13.73;6.05;;;12.20;99.90;;;;;;4957895;28;20023;-68
2022/10/30 08:14:48;;;;;;;7.93;5.82;;;12.30;99.90;;;;;;4958054;28;20026;-67
2022/10/30 08:17:13;;;;;;;8.02;5.43;;;12.40;99.90;;;;;;4958094;28;20390;-67
2022/10/30 08:19:39;;;;;;;13.98;5.25;;;12.30;99.90;;;;;;4957978;28;20057;-67
2022/10/30 08:22:04;;;;;;;13.60;6.22;;;12.30;99.90;;;;;;4958628;28;20134;-67
2022/10/30 08:24:30;;;;;;;9.18;6.00;;;12.40;99.90;;;;;;4958187;28;20121;-67
2022/10/30 08:26:56;;;;;;;7.75;5.43;;;12.40;99.90;;;;;;4957914;28;20038;-67
2022/10/30 08:29:21;;;;;;;8.05;5.40;;;12.40;99.90;;;;;;4958073;28;20034;-67
2022/10/30 08:31:47;;;;;;;8.23;5.43;;;12.50;99.90;;;;;;4957686;28;20030;-68
2022/10/30 08:34:13;;;;;;;6.93;4.97;;;12.50;99.90;;;;;;4957247;28;20030;-67
2022/10/30 08:36:38;;;;;;;7.32;4.70;;;12.60;99.90;;;;;;4974667;28;20023;-68
2022/10/30 08:39:04;;;;;;;6.90;5.00;;;12.70;99.90;;;;;;4957870;28;20078;-68
2022/10/30 08:41:30;;;;;;;6.35;4.80;;;12.70;99.90;;;;;;4958299;28;20027;-68
2022/10/30 08:43:55;;;;;;;9.25;5.75;;;12.70;99.90;;;;;;4960882;28;20027;-67
2022/10/30 08:46:21;;;;;;;7.90;5.43;;;12.80;99.90;;;;;;4961342;28;20069;-67
2022/10/30 08:48:46;;;;;;;7.65;5.45;;;12.60;99.90;;;;;;4960974;28;20038;-67
2022/10/30 08:51:12;;;;;;;7.93;4.95;;;12.50;99.90;;;;;;4961859;28;20034;-67
2022/10/30 08:53:37;;;;;;;6.50;5.20;;;12.60;99.90;;;;;;4961025;28;20058;-67
2022/10/30 08:56:04;;;;;;;6.43;5.03;;;12.70;99.90;;;;;;4960690;28;20027;-67
2022/10/30 08:58:29;;;;;;;8.93;5.90;;;12.80;99.90;;;;;;4977961;28;20034;-67
2022/10/30 09:00:55;;;;;;;8.05;5.88;;;13.00;99.90;;;;;;4961060;28;20027;-68
2022/10/30 09:03:20;;;;;;;8.43;5.65;;;13.10;99.90;;;;;;4961751;28;20030;-68
2022/10/30 09:05:46;;;;;;;7.15;5.07;;;13.30;99.90;;;;;;4977970;28;20109;-68
2022/10/30 09:08:11;;;;;;;7.45;5.72;;;13.40;99.90;;;;;;4960801;28;20101;-68
2022/10/30 09:10:37;;;;;;;7.57;5.60;;;13.40;99.90;;;;;;4961070;28;20018;-68
2022/10/30 09:13:02;;;;;;;8.50;5.78;;;13.40;99.90;;;;;;4960917;28;20037;-68
2022/10/30 09:15:28;;;;;;;7.47;5.43;;;13.60;99.90;;;;;;4961710;28;20054;-68
2022/10/30 09:17:55;;;;;;;8.75;5.20;;;13.70;99.90;;;;;;4961400;28;20023;-68
2022/10/30 09:20:21;;;;;;;8.23;5.88;;;13.80;99.90;;;;;;4961307;28;20030;-68
2022/10/30 09:22:46;;;;;;;8.93;5.82;;;13.90;99.90;;;;;;4978630;28;20022;-68
2022/10/30 09:25:12;;;;;;;12.50;7.00;;;13.90;99.90;;;;;;4961569;28;20026;-68
2022/10/30 09:27:38;;;;;;;10.27;6.70;;;13.90;99.90;;;;;;4978186;28;20474;-68
2022/10/30 09:30:04;;;;;;;10.73;6.53;;;14.00;99.90;;;;;;4960452;28;20422;-68
2022/10/30 09:32:30;;;;;;;8.02;6.60;;;14.10;99.90;;;;;;4977530;28;20027;-68
2022/10/30 09:34:55;;;;;;;12.55;6.00;;;14.20;99.90;;;;;;4977862;28;20034;-68
2022/10/30 09:37:23;;;;;;;13.18;6.15;;;14.30;99.90;;;;;;4978922;28;20526;-68
2022/10/30 09:39:48;;;;;;;11.77;7.60;;;14.40;99.90;;;;;;4978161;28;20034;-68
2022/10/30 09:42:35;;;;;;;13.85;6.68;;;14.50;99.90;;;;;;4978362;28;20019;-68
2022/10/30 09:45:15;;;;;;;13.05;6.75;;;14.60;99.90;;;;;;5000300;23;20042;-65
2022/10/30 09:47:44;;;;;;;13.35;7.18;;;14.70;99.90;;;;;;4977349;28;20031;-65
2022/10/30 09:50:28;;;;;;;13.00;7.43;;;14.80;99.90;;;;;;4977333;28;20019;-65
2022/10/30 09:53:18;;;;;;;13.55;7.60;;;14.90;99.90;;;;;;4959734;28;20030;-65
2022/10/30 09:56:01;;;;;;;16.52;8.07;;;15.00;99.90;;;;;;4958168;28;20035;-65
2022/10/30 09:58:51;;;;;;;21.73;8.98;;;15.10;99.90;;;;;;4976866;28;20027;-65
2022/10/30 10:01:34;;;;;;;17.92;7.95;;;15.20;99.90;;;;;;4976940;28;20023;-65
2022/10/30 10:04:20;;;;;;;13.18;8.50;;;15.40;99.90;;;;;;4959399;28;20066;-65
2022/10/30 10:06:51;;;;;;;17.80;8.23;;;15.60;99.90;;;;;;4959787;28;20054;-65
2022/10/30 10:09:19;;;;;;;18.40;8.43;;;15.80;99.90;;;;;;4960363;28;20019;-65
2022/10/30 10:11:56;;;;;;;15.98;8.13;;;15.90;99.90;;;;;;4959431;28;20027;-65
2022/10/30 10:14:31;;;;;;;16.02;8.23;;;16.20;99.90;;;;;;4959334;28;20117;-65
2022/10/30 10:17:01;;;;;;;12.80;8.27;;;16.30;99.90;;;;;;4976594;28;20085;-65
2022/10/30 10:19:52;;;;;;;14.07;7.57;;;16.30;99.90;;;;;;4959324;28;20058;-66
2022/10/30 10:22:39;;;;;;;15.60;7.72;;;16.40;99.90;;;;;;4960246;28;20026;-66
2022/10/30 10:25:12;;;;;;;14.32;7.45;;;16.60;99.90;;;;;;4959855;28;20022;-66
2022/10/30 10:28:03;;;;;;;16.10;8.50;;;16.80;99.90;;;;;;4959749;28;20025;-66
2022/10/30 10:31:06;;;;;;;24.00;8.73;;;17.00;99.90;;;;;;4960087;28;20026;-65
2022/10/30 10:33:39;;;;;;;18.50;7.85;;;17.00;99.90;;;;;;4976237;28;20038;-64
2022/10/30 10:36:10;;;;;;;20.05;8.90;;;17.20;99.90;;;;;;4958847;28;20026;-65
2022/10/30 10:38:36;;;;;;;17.73;8.38;;;17.40;99.90;;;;;;4959121;28;20023;-64
2022/10/30 10:41:21;;;;;;;23.35;8.90;;;17.50;99.90;;;;;;4958765;28;20524;-64
2022/10/30 10:44:11;;;;;;;18.23;8.38;;;17.60;99.90;;;;;;4959596;28;20057;-64
2022/10/30 10:47:15;;;;;;;15.07;7.90;;;17.80;99.90;;;;;;4958727;28;20035;-64
2022/10/30 10:50:16;;;;;;;13.95;8.00;;;18.00;99.90;;;;;;4958694;28;20019;-64
2022/10/30 10:52:48;;;;;;;11.95;7.00;;;18.30;99.90;;;;;;4975958;28;20034;-64
2022/10/30 10:55:18;;;;;;;18.02;7.55;;;18.30;99.90;;;;;;4975825;28;20038;-64
2022/10/30 10:57:45;;;;;;;17.65;7.57;;;18.50;99.90;;;;;;4958498;28;20030;-65
2022/10/30 11:00:22;;;;;;;20.88;7.80;;;18.90;99.90;;;;;;4958426;28;20054;-65
2022/10/30 11:02:59;;;;;;;15.50;7.40;;;19.00;99.90;;;;;;4958415;28;20023;-65
2022/10/30 11:05:36;;;;;;;19.23;6.80;;;19.10;99.90;;;;;;4958823;28;20026;-65
2022/10/30 11:08:21;;;;;;;18.02;7.40;;;19.20;99.90;;;;;;4958316;28;20027;-65
2022/10/30 11:10:59;;;;;;;21.58;7.53;;;19.10;99.90;;;;;;4957943;28;20034;-65
2022/10/30 11:13:28;;;;;;;17.30;8.52;;;19.00;99.90;;;;;;4958213;28;20086;-64
2022/10/30 11:16:05;;;;;;;15.43;7.50;;;18.90;99.90;;;;;;4958147;28;20096;-65
2022/10/30 11:18:32;;;;;;;13.02;8.02;;;19.10;99.90;;;;;;4958576;28;20062;-65
2022/10/30 11:21:09;;;;;;;20.65;8.63;;;19.20;99.90;;;;;;4975379;28;20073;-65
2022/10/30 11:23:38;;;;;;;16.38;7.95;;;19.30;99.90;;;;;;4975265;28;20027;-65
2022/10/30 11:26:26;;;;;;;15.30;7.90;;;19.60;99.90;;;;;;4957945;28;20027;-65
2022/10/30 11:29:09;;;;;;;17.98;8.00;;;19.60;99.90;;;;;;4957895;28;20113;-65
2022/10/30 11:31:42;;;;;;;14.63;8.05;;;19.60;99.90;;;;;;4958790;28;20169;-65
2022/10/30 11:34:30;;;;;;;19.95;8.10;;;19.80;99.90;;;;;;4957925;28;20026;-65
2022/10/30 11:36:55;;;;;;;20.17;9.13;;;20.00;99.90;;;;;;4958070;28;20069;-65
2022/10/30 11:39:22;;;;;;;24.75;8.85;;;20.10;99.90;;;;;;4957950;28;20119;-65
2022/10/30 11:42:03;;;;;;;17.00;9.00;;;20.40;99.90;;;;;;4974946;28;20027;-65
2022/10/30 11:44:42;;;;;;;16.45;8.32;;;20.50;99.90;;;;;;4957733;28;20027;-65
2022/10/30 11:47:11;;;;;;;14.80;6.93;;;20.90;99.90;;;;;;4957908;28;20517;-65
2022/10/30 11:49:48;;;;;;;17.80;6.88;;;21.20;99.90;;;;;;4957661;28;20027;-65
2022/10/30 11:52:17;;;;;;;16.95;7.57;;;21.30;99.90;;;;;;4957696;28;20058;-65
2022/10/30 11:54:47;;;;;;;18.85;6.85;;;21.30;99.90;;;;;;4957664;28;20034;-65
2022/10/30 11:57:42;;;;;;;21.13;8.10;;;21.20;99.90;;;;;;4957449;28;20057;-65
2022/10/30 12:00:26;;;;;;;12.70;6.60;;;21.20;99.90;;;;;;4938489;28;20133;-65
2022/10/30 12:02:53;;;;;;;20.70;6.88;;;21.00;99.90;;;;;;4955403;28;20062;-65
2022/10/30 12:05:38;;;;;;;17.35;6.70;;;21.00;99.90;;;;;;4945280;28;20074;-65
2022/10/30 12:08:07;;;;;;;19.73;7.00;;;21.60;99.90;;;;;;4957816;28;20090;-65
2022/10/30 12:10:39;;;;;;;14.88;5.72;;;22.20;99.90;;;;;;4957314;28;20074;-65
2022/10/30 12:13:11;;;;;;;15.38;6.22;;;22.60;99.90;;;;;;4957040;28;20453;-65
2022/10/30 12:15:37;;;;;;;16.30;6.07;;;22.90;99.90;;;;;;4974447;28;20022;-66
2022/10/30 12:18:06;;;;;;;17.98;5.93;;;23.10;99.90;;;;;;4956444;28;20029;-65
2022/10/30 12:20:35;;;;;;;17.45;6.70;;;22.90;99.90;;;;;;4957249;28;20023;-65
2022/10/30 12:23:15;;;;;;;19.73;6.55;;;22.50;99.90;;;;;;4974364;28;20054;-65
2022/10/30 12:25:46;;;;;;;16.30;6.60;;;22.30;99.90;;;;;;4957188;28;20122;-65
2022/10/30 12:28:18;;;;;;;12.60;5.82;;;22.20;99.90;;;;;;4957232;28;20429;-65
2022/10/30 12:30:53;;;;;;;17.70;6.35;;;22.30;99.90;;;;;;4957241;28;20085;-65
2022/10/30 12:33:57;;;;;;;15.75;5.35;;;22.30;99.90;;;;;;4957127;28;20070;-65
2022/10/30 12:36:26;;;;;;;13.63;5.88;;;22.40;99.90;;;;;;4973097;28;20023;-65
2022/10/30 12:39:10;;;;;;;10.73;6.15;;;23.10;99.90;;;;;;4957629;28;20065;-65
2022/10/30 12:41:41;;;;;;;19.25;6.10;;;23.30;99.90;;;;;;4974337;28;20051;-65
2022/10/30 12:44:20;;;;;;;11.68;5.63;;;22.90;99.90;;;;;;4956968;28;20398;-65
2022/10/30 12:47:05;;;;;;;19.10;5.45;;;22.70;99.90;;;;;;4957276;28;20034;-65
2022/10/30 12:49:49;;;;;;;12.15;4.93;;;22.70;99.90;;;;;;4957984;28;20035;-65
2022/10/30 12:52:27;;;;;;;13.88;4.95;;;22.80;99.90;;;;;;4957256;28;20118;-66